Culver, Minnesota
Current Conditions -  °F | °C
As of 3:55 PM on Thursday 27 Nov 2014 (Local Time) from KDLH Reporting Station
Clear Clear  
Wind Chill:   Ceiling: Unl
Heat Index:   Visibility: 10mi
Dew Point: -8°   Wind: 3mph
Humidity: 53%   Direction: 270°W
Pressure: 30.31"   Gusts: NA
Location:  46.8859°N, 92.4258°W
Report Text: KDLH 272155Z 27003KT 10SM CLR M14/M22 A3031 RMK AO2 SLP309 T11441222
Loading
Personal Weather Stations






























Interactive Weather Map New forecast layout! Learn more

10-Day Weather Forecast

Advertisements
Track Severe Weather on mobile